sensor_id;sensor_type;location;lat;lon;timestamp;P1;durP1;ratioP1;P2;durP2;ratioP2
75667;SDS011;64266;48.798;44.756;2022-10-16T00:02:08;12.15;;;4.43;;
75667;SDS011;64266;48.798;44.756;2022-10-16T00:04:34;12.07;;;5.07;;
75667;SDS011;64266;48.798;44.756;2022-10-16T00:06:59;11.02;;;4.38;;
75667;SDS011;64266;48.798;44.756;2022-10-16T00:09:25;15.25;;;5.32;;
75667;SDS011;64266;48.798;44.756;2022-10-16T00:11:51;12.00;;;5.25;;
75667;SDS011;64266;48.798;44.756;2022-10-16T00:14:17;14.45;;;5.60;;
75667;SDS011;64266;48.798;44.756;2022-10-16T00:16:43;14.65;;;5.22;;
75667;SDS011;64266;48.798;44.756;2022-10-16T00:19:09;18.13;;;5.88;;
75667;SDS011;64266;48.798;44.756;2022-10-16T00:21:37;18.83;;;6.82;;
75667;SDS011;64266;48.798;44.756;2022-10-16T00:24:21;15.52;;;7.32;;
75667;SDS011;64266;48.798;44.756;2022-10-16T00:26:48;24.75;;;7.80;;
75667;SDS011;64266;48.798;44.756;2022-10-16T00:29:14;17.85;;;7.15;;
75667;SDS011;64266;48.798;44.756;2022-10-16T00:31:40;17.10;;;6.97;;
75667;SDS011;64266;48.798;44.756;2022-10-16T00:34:06;17.92;;;7.53;;
75667;SDS011;64266;48.798;44.756;2022-10-16T00:36:32;19.17;;;7.35;;
75667;SDS011;64266;48.798;44.756;2022-10-16T00:38:58;22.67;;;8.38;;
75667;SDS011;64266;48.798;44.756;2022-10-16T00:41:26;17.27;;;7.47;;
75667;SDS011;64266;48.798;44.756;2022-10-16T00:43:59;19.77;;;9.27;;
75667;SDS011;64266;48.798;44.756;2022-10-16T00:46:39;20.75;;;7.40;;
75667;SDS011;64266;48.798;44.756;2022-10-16T00:49:11;16.52;;;6.93;;
75667;SDS011;64266;48.798;44.756;2022-10-16T00:51:40;17.33;;;7.93;;
75667;SDS011;64266;48.798;44.756;2022-10-16T00:54:31;18.35;;;6.78;;
75667;SDS011;64266;48.798;44.756;2022-10-16T00:56:56;15.02;;;6.75;;
75667;SDS011;64266;48.798;44.756;2022-10-16T00:59:27;16.20;;;6.28;;
75667;SDS011;64266;48.798;44.756;2022-10-16T01:01:55;17.88;;;6.10;;
75667;SDS011;64266;48.798;44.756;2022-10-16T01:04:22;18.60;;;7.20;;
75667;SDS011;64266;48.798;44.756;2022-10-16T01:14:58;17.23;;;7.88;;
75667;SDS011;64266;48.798;44.756;2022-10-16T01:23:51;21.52;;;8.27;;
75667;SDS011;64266;48.798;44.756;2022-10-16T01:28:27;17.85;;;8.85;;
75667;SDS011;64266;48.798;44.756;2022-10-16T01:31:00;19.17;;;8.57;;
75667;SDS011;64266;48.798;44.756;2022-10-16T01:33:41;19.27;;;8.10;;
75667;SDS011;64266;48.798;44.756;2022-10-16T01:38:47;15.35;;;6.80;;
75667;SDS011;64266;48.798;44.756;2022-10-16T01:41:21;13.07;;;6.05;;
75667;SDS011;64266;48.798;44.756;2022-10-16T01:43:54;14.45;;;6.13;;
75667;SDS011;64266;48.798;44.756;2022-10-16T01:46:27;14.52;;;6.03;;
75667;SDS011;64266;48.798;44.756;2022-10-16T01:48:55;14.57;;;6.88;;
75667;SDS011;64266;48.798;44.756;2022-10-16T01:51:23;17.55;;;6.20;;
75667;SDS011;64266;48.798;44.756;2022-10-16T01:53:52;15.23;;;5.68;;
75667;SDS011;64266;48.798;44.756;2022-10-16T01:56:22;13.57;;;5.40;;
75667;SDS011;64266;48.798;44.756;2022-10-16T01:58:51;11.05;;;4.78;;
75667;SDS011;64266;48.798;44.756;2022-10-16T02:01:21;11.98;;;4.60;;
75667;SDS011;64266;48.798;44.756;2022-10-16T02:03:51;8.68;;;4.35;;
75667;SDS011;64266;48.798;44.756;2022-10-16T02:06:20;9.52;;;4.47;;
75667;SDS011;64266;48.798;44.756;2022-10-16T02:08:47;9.52;;;4.10;;
75667;SDS011;64266;48.798;44.756;2022-10-16T02:11:13;9.73;;;3.80;;
75667;SDS011;64266;48.798;44.756;2022-10-16T02:13:46;9.85;;;3.42;;
75667;SDS011;64266;48.798;44.756;2022-10-16T02:16:16;8.93;;;3.95;;
75667;SDS011;64266;48.798;44.756;2022-10-16T02:18:42;10.27;;;3.80;;
75667;SDS011;64266;48.798;44.756;2022-10-16T02:21:19;9.38;;;4.05;;
75667;SDS011;64266;48.798;44.756;2022-10-16T02:23:57;9.40;;;4.03;;
75667;SDS011;64266;48.798;44.756;2022-10-16T02:29:39;13.88;;;4.72;;
75667;SDS011;64266;48.798;44.756;2022-10-16T02:32:14;7.78;;;4.22;;
75667;SDS011;64266;48.798;44.756;2022-10-16T02:34:43;12.90;;;5.07;;
75667;SDS011;64266;48.798;44.756;2022-10-16T02:37:11;9.80;;;4.28;;
75667;SDS011;64266;48.798;44.756;2022-10-16T02:39:37;9.75;;;4.55;;
75667;SDS011;64266;48.798;44.756;2022-10-16T02:42:09;12.85;;;4.70;;
75667;SDS011;64266;48.798;44.756;2022-10-16T02:44:39;14.05;;;4.93;;
75667;SDS011;64266;48.798;44.756;2022-10-16T02:47:05;12.10;;;4.97;;
75667;SDS011;64266;48.798;44.756;2022-10-16T02:49:31;15.02;;;4.90;;
75667;SDS011;64266;48.798;44.756;2022-10-16T02:51:57;12.48;;;5.70;;
75667;SDS011;64266;48.798;44.756;2022-10-16T02:54:23;11.48;;;5.00;;
75667;SDS011;64266;48.798;44.756;2022-10-16T02:56:49;13.80;;;5.10;;
75667;SDS011;64266;48.798;44.756;2022-10-16T02:59:15;16.63;;;6.15;;
75667;SDS011;64266;48.798;44.756;2022-10-16T03:01:41;13.02;;;5.68;;
75667;SDS011;64266;48.798;44.756;2022-10-16T03:04:07;12.73;;;5.22;;
75667;SDS011;64266;48.798;44.756;2022-10-16T03:06:33;12.50;;;5.50;;
75667;SDS011;64266;48.798;44.756;2022-10-16T03:08:59;14.55;;;5.07;;
75667;SDS011;64266;48.798;44.756;2022-10-16T03:11:25;11.75;;;5.15;;
75667;SDS011;64266;48.798;44.756;2022-10-16T03:13:51;12.80;;;5.00;;
75667;SDS011;64266;48.798;44.756;2022-10-16T03:16:18;20.30;;;5.88;;
75667;SDS011;64266;48.798;44.756;2022-10-16T03:18:47;10.95;;;4.68;;
75667;SDS011;64266;48.798;44.756;2022-10-16T03:21:13;14.00;;;5.03;;
75667;SDS011;64266;48.798;44.756;2022-10-16T03:23:40;16.30;;;4.85;;
75667;SDS011;64266;48.798;44.756;2022-10-16T03:26:05;15.95;;;5.05;;
75667;SDS011;64266;48.798;44.756;2022-10-16T03:28:31;11.10;;;4.85;;
75667;SDS011;64266;48.798;44.756;2022-10-16T03:30:57;11.40;;;4.38;;
75667;SDS011;64266;48.798;44.756;2022-10-16T03:33:23;12.02;;;3.95;;
75667;SDS011;64266;48.798;44.756;2022-10-16T03:35:52;8.10;;;3.90;;
75667;SDS011;64266;48.798;44.756;2022-10-16T03:38:19;10.50;;;3.60;;
75667;SDS011;64266;48.798;44.756;2022-10-16T03:40:46;8.60;;;3.55;;
75667;SDS011;64266;48.798;44.756;2022-10-16T03:43:12;10.13;;;3.78;;
75667;SDS011;64266;48.798;44.756;2022-10-16T03:45:38;13.65;;;3.47;;
75667;SDS011;64266;48.798;44.756;2022-10-16T03:48:04;10.18;;;3.95;;
75667;SDS011;64266;48.798;44.756;2022-10-16T03:50:29;8.05;;;3.58;;
75667;SDS011;64266;48.798;44.756;2022-10-16T03:52:55;12.68;;;3.83;;
75667;SDS011;64266;48.798;44.756;2022-10-16T03:55:21;9.13;;;3.80;;
75667;SDS011;64266;48.798;44.756;2022-10-16T03:57:47;10.65;;;3.47;;
75667;SDS011;64266;48.798;44.756;2022-10-16T04:00:12;8.00;;;4.22;;
75667;SDS011;64266;48.798;44.756;2022-10-16T04:02:39;10.07;;;4.25;;
75667;SDS011;64266;48.798;44.756;2022-10-16T04:05:05;9.77;;;4.03;;
75667;SDS011;64266;48.798;44.756;2022-10-16T04:07:31;10.35;;;3.70;;
75667;SDS011;64266;48.798;44.756;2022-10-16T04:09:56;10.85;;;3.90;;
75667;SDS011;64266;48.798;44.756;2022-10-16T04:12:24;11.95;;;5.32;;
75667;SDS011;64266;48.798;44.756;2022-10-16T04:14:51;8.85;;;4.72;;
75667;SDS011;64266;48.798;44.756;2022-10-16T04:17:17;20.40;;;9.10;;
75667;SDS011;64266;48.798;44.756;2022-10-16T04:19:43;23.05;;;10.88;;
75667;SDS011;64266;48.798;44.756;2022-10-16T04:22:10;24.38;;;11.07;;
75667;SDS011;64266;48.798;44.756;2022-10-16T04:24:36;16.85;;;9.65;;
75667;SDS011;64266;48.798;44.756;2022-10-16T04:27:03;13.73;;;6.45;;
75667;SDS011;64266;48.798;44.756;2022-10-16T04:29:29;12.60;;;4.28;;
75667;SDS011;64266;48.798;44.756;2022-10-16T04:31:55;9.27;;;5.22;;
75667;SDS011;64266;48.798;44.756;2022-10-16T04:34:20;12.30;;;5.78;;
75667;SDS011;64266;48.798;44.756;2022-10-16T04:36:47;14.05;;;6.13;;
75667;SDS011;64266;48.798;44.756;2022-10-16T04:39:15;15.40;;;8.30;;
75667;SDS011;64266;48.798;44.756;2022-10-16T04:41:41;25.13;;;13.18;;
75667;SDS011;64266;48.798;44.756;2022-10-16T04:44:06;40.85;;;20.52;;
75667;SDS011;64266;48.798;44.756;2022-10-16T04:46:32;32.20;;;18.48;;
75667;SDS011;64266;48.798;44.756;2022-10-16T04:48:58;35.05;;;17.67;;
75667;SDS011;64266;48.798;44.756;2022-10-16T04:51:24;34.90;;;19.83;;
75667;SDS011;64266;48.798;44.756;2022-10-16T04:53:51;35.92;;;18.90;;
75667;SDS011;64266;48.798;44.756;2022-10-16T04:56:16;28.48;;;15.05;;
75667;SDS011;64266;48.798;44.756;2022-10-16T04:58:42;11.65;;;5.82;;
75667;SDS011;64266;48.798;44.756;2022-10-16T05:01:08;12.68;;;6.38;;
75667;SDS011;64266;48.798;44.756;2022-10-16T05:03:35;13.75;;;5.32;;
75667;SDS011;64266;48.798;44.756;2022-10-16T05:06:01;8.93;;;4.85;;
75667;SDS011;64266;48.798;44.756;2022-10-16T05:08:26;17.52;;;4.32;;
75667;SDS011;64266;48.798;44.756;2022-10-16T05:10:52;10.05;;;4.90;;
75667;SDS011;64266;48.798;44.756;2022-10-16T05:13:18;10.27;;;4.57;;
75667;SDS011;64266;48.798;44.756;2022-10-16T05:15:47;13.18;;;5.22;;
75667;SDS011;64266;48.798;44.756;2022-10-16T05:18:14;12.20;;;4.90;;
75667;SDS011;64266;48.798;44.756;2022-10-16T05:20:40;16.13;;;5.40;;
75667;SDS011;64266;48.798;44.756;2022-10-16T05:23:07;15.40;;;4.60;;
75667;SDS011;64266;48.798;44.756;2022-10-16T05:25:35;15.40;;;4.72;;
75667;SDS011;64266;48.798;44.756;2022-10-16T05:28:02;17.55;;;5.22;;
75667;SDS011;64266;48.798;44.756;2022-10-16T05:30:28;23.15;;;5.18;;
75667;SDS011;64266;48.798;44.756;2022-10-16T05:32:55;24.45;;;5.53;;
75667;SDS011;64266;48.798;44.756;2022-10-16T05:35:21;25.55;;;5.32;;
75667;SDS011;64266;48.798;44.756;2022-10-16T05:37:48;18.08;;;4.20;;
75667;SDS011;64266;48.798;44.756;2022-10-16T05:40:17;19.63;;;4.50;;
75667;SDS011;64266;48.798;44.756;2022-10-16T05:42:43;12.40;;;3.72;;
75667;SDS011;64266;48.798;44.756;2022-10-16T05:45:09;18.45;;;4.15;;
75667;SDS011;64266;48.798;44.756;2022-10-16T05:47:37;26.75;;;5.20;;
75667;SDS011;64266;48.798;44.756;2022-10-16T05:50:03;25.92;;;6.03;;
75667;SDS011;64266;48.798;44.756;2022-10-16T05:52:29;23.77;;;5.97;;
75667;SDS011;64266;48.798;44.756;2022-10-16T05:54:56;37.30;;;6.57;;
75667;SDS011;64266;48.798;44.756;2022-10-16T05:57:22;19.30;;;6.45;;
75667;SDS011;64266;48.798;44.756;2022-10-16T05:59:48;34.55;;;8.55;;
75667;SDS011;64266;48.798;44.756;2022-10-16T06:02:14;27.50;;;8.25;;
75667;SDS011;64266;48.798;44.756;2022-10-16T06:04:39;21.00;;;7.45;;
75667;SDS011;64266;48.798;44.756;2022-10-16T06:07:06;20.00;;;7.90;;
75667;SDS011;64266;48.798;44.756;2022-10-16T06:09:37;35.00;;;9.27;;
75667;SDS011;64266;48.798;44.756;2022-10-16T06:12:03;35.67;;;9.32;;
75667;SDS011;64266;48.798;44.756;2022-10-16T06:14:30;40.03;;;12.88;;
75667;SDS011;64266;48.798;44.756;2022-10-16T06:16:55;50.90;;;13.90;;
75667;SDS011;64266;48.798;44.756;2022-10-16T06:19:22;53.47;;;13.90;;
75667;SDS011;64266;48.798;44.756;2022-10-16T06:21:48;42.13;;;13.00;;
75667;SDS011;64266;48.798;44.756;2022-10-16T06:24:13;35.45;;;10.30;;
75667;SDS011;64266;48.798;44.756;2022-10-16T06:26:39;23.58;;;9.77;;
75667;SDS011;64266;48.798;44.756;2022-10-16T06:29:07;17.33;;;6.93;;
75667;SDS011;64266;48.798;44.756;2022-10-16T06:31:33;13.73;;;6.40;;
75667;SDS011;64266;48.798;44.756;2022-10-16T06:33:59;18.75;;;4.72;;
75667;SDS011;64266;48.798;44.756;2022-10-16T06:36:26;19.63;;;4.28;;
75667;SDS011;64266;48.798;44.756;2022-10-16T06:38:53;15.30;;;4.30;;
75667;SDS011;64266;48.798;44.756;2022-10-16T06:41:20;15.02;;;4.85;;
75667;SDS011;64266;48.798;44.756;2022-10-16T06:43:47;12.98;;;5.70;;
75667;SDS011;64266;48.798;44.756;2022-10-16T06:46:15;20.27;;;7.60;;
75667;SDS011;64266;48.798;44.756;2022-10-16T06:48:43;15.25;;;5.82;;
75667;SDS011;64266;48.798;44.756;2022-10-16T06:51:11;19.80;;;6.22;;
75667;SDS011;64266;48.798;44.756;2022-10-16T06:53:39;16.70;;;7.60;;
75667;SDS011;64266;48.798;44.756;2022-10-16T06:56:11;16.52;;;7.32;;
75667;SDS011;64266;48.798;44.756;2022-10-16T06:58:42;17.00;;;5.85;;
75667;SDS011;64266;48.798;44.756;2022-10-16T07:01:08;13.55;;;5.82;;
75667;SDS011;64266;48.798;44.756;2022-10-16T07:03:38;12.30;;;5.40;;
75667;SDS011;64266;48.798;44.756;2022-10-16T07:08:32;15.35;;;6.60;;
75667;SDS011;64266;48.798;44.756;2022-10-16T07:11:02;16.95;;;7.70;;
75667;SDS011;64266;48.798;44.756;2022-10-16T07:13:32;10.27;;;4.88;;
75667;SDS011;64266;48.798;44.756;2022-10-16T07:16:03;9.38;;;3.47;;
75667;SDS011;64266;48.798;44.756;2022-10-16T07:18:40;7.85;;;3.50;;
75667;SDS011;64266;48.798;44.756;2022-10-16T07:21:11;9.02;;;4.40;;
75667;SDS011;64266;48.798;44.756;2022-10-16T07:23:39;12.27;;;4.85;;
75667;SDS011;64266;48.798;44.756;2022-10-16T07:26:05;5.18;;;2.47;;
75667;SDS011;64266;48.798;44.756;2022-10-16T07:28:32;6.15;;;2.63;;
75667;SDS011;64266;48.798;44.756;2022-10-16T07:31:02;5.43;;;2.35;;
75667;SDS011;64266;48.798;44.756;2022-10-16T07:33:33;5.88;;;2.60;;
75667;SDS011;64266;48.798;44.756;2022-10-16T07:36:00;6.43;;;2.60;;
75667;SDS011;64266;48.798;44.756;2022-10-16T07:38:26;8.75;;;2.58;;
75667;SDS011;64266;48.798;44.756;2022-10-16T07:40:56;7.05;;;3.13;;
75667;SDS011;64266;48.798;44.756;2022-10-16T07:43:23;6.43;;;2.90;;
75667;SDS011;64266;48.798;44.756;2022-10-16T07:45:49;7.93;;;3.13;;
75667;SDS011;64266;48.798;44.756;2022-10-16T07:48:16;9.18;;;3.38;;
75667;SDS011;64266;48.798;44.756;2022-10-16T07:50:43;8.60;;;4.28;;
75667;SDS011;64266;48.798;44.756;2022-10-16T07:53:10;6.93;;;3.45;;
75667;SDS011;64266;48.798;44.756;2022-10-16T07:55:37;8.77;;;3.72;;
75667;SDS011;64266;48.798;44.756;2022-10-16T07:58:03;7.45;;;3.30;;
75667;SDS011;64266;48.798;44.756;2022-10-16T08:00:30;8.07;;;3.55;;
75667;SDS011;64266;48.798;44.756;2022-10-16T08:02:59;8.32;;;3.28;;
75667;SDS011;64266;48.798;44.756;2022-10-16T08:05:28;6.45;;;2.70;;
75667;SDS011;64266;48.798;44.756;2022-10-16T08:07:54;8.25;;;3.50;;
75667;SDS011;64266;48.798;44.756;2022-10-16T08:10:22;7.80;;;3.30;;
75667;SDS011;64266;48.798;44.756;2022-10-16T08:12:50;10.45;;;4.10;;
75667;SDS011;64266;48.798;44.756;2022-10-16T08:15:16;11.90;;;3.95;;
75667;SDS011;64266;48.798;44.756;2022-10-16T08:17:43;15.32;;;5.03;;
75667;SDS011;64266;48.798;44.756;2022-10-16T08:20:09;9.48;;;4.53;;
75667;SDS011;64266;48.798;44.756;2022-10-16T08:22:36;8.65;;;3.50;;
75667;SDS011;64266;48.798;44.756;2022-10-16T08:25:02;8.95;;;3.65;;
75667;SDS011;64266;48.798;44.756;2022-10-16T08:27:32;6.60;;;3.38;;
75667;SDS011;64266;48.798;44.756;2022-10-16T08:29:58;13.45;;;4.20;;
75667;SDS011;64266;48.798;44.756;2022-10-16T08:32:24;10.45;;;3.25;;
75667;SDS011;64266;48.798;44.756;2022-10-16T08:34:50;9.80;;;3.42;;
75667;SDS011;64266;48.798;44.756;2022-10-16T08:37:15;6.25;;;2.83;;
75667;SDS011;64266;48.798;44.756;2022-10-16T08:39:42;7.63;;;3.65;;
75667;SDS011;64266;48.798;44.756;2022-10-16T08:45:05;13.68;;;3.95;;
75667;SDS011;64266;48.798;44.756;2022-10-16T08:50:32;6.95;;;2.95;;
75667;SDS011;64266;48.798;44.756;2022-10-16T08:53:10;9.00;;;3.25;;
75667;SDS011;64266;48.798;44.756;2022-10-16T08:55:52;8.65;;;3.70;;
75667;SDS011;64266;48.798;44.756;2022-10-16T08:58:21;7.97;;;3.28;;
75667;SDS011;64266;48.798;44.756;2022-10-16T09:00:56;10.55;;;4.53;;
75667;SDS011;64266;48.798;44.756;2022-10-16T09:20:26;8.05;;;3.63;;
75667;SDS011;64266;48.798;44.756;2022-10-16T09:23:17;5.28;;;3.08;;
75667;SDS011;64266;48.798;44.756;2022-10-16T09:25:48;7.20;;;3.10;;
75667;SDS011;64266;48.798;44.756;2022-10-16T09:28:17;8.40;;;3.17;;
75667;SDS011;64266;48.798;44.756;2022-10-16T09:30:44;6.50;;;3.20;;
75667;SDS011;64266;48.798;44.756;2022-10-16T09:33:11;7.82;;;3.15;;
75667;SDS011;64266;48.798;44.756;2022-10-16T09:35:40;6.57;;;3.10;;
75667;SDS011;64266;48.798;44.756;2022-10-16T09:38:30;13.55;;;4.40;;
75667;SDS011;64266;48.798;44.756;2022-10-16T09:41:13;10.15;;;3.47;;
75667;SDS011;64266;48.798;44.756;2022-10-16T09:44:03;11.23;;;3.85;;
75667;SDS011;64266;48.798;44.756;2022-10-16T09:46:34;12.77;;;4.47;;
75667;SDS011;64266;48.798;44.756;2022-10-16T09:49:05;10.48;;;4.68;;
75667;SDS011;64266;48.798;44.756;2022-10-16T09:51:50;7.72;;;3.53;;
75667;SDS011;64266;48.798;44.756;2022-10-16T09:54:27;7.57;;;3.25;;
75667;SDS011;64266;48.798;44.756;2022-10-16T09:57:03;8.60;;;3.97;;
75667;SDS011;64266;48.798;44.756;2022-10-16T09:59:30;9.98;;;3.40;;
75667;SDS011;64266;48.798;44.756;2022-10-16T10:01:56;8.02;;;3.90;;
75667;SDS011;64266;48.798;44.756;2022-10-16T10:04:37;6.07;;;2.97;;
75667;SDS011;64266;48.798;44.756;2022-10-16T10:07:15;8.25;;;3.60;;
75667;SDS011;64266;48.798;44.756;2022-10-16T10:09:44;13.48;;;4.60;;
75667;SDS011;64266;48.798;44.756;2022-10-16T10:12:19;8.27;;;3.85;;
75667;SDS011;64266;48.798;44.756;2022-10-16T10:14:48;8.38;;;3.80;;
75667;SDS011;64266;48.798;44.756;2022-10-16T10:17:18;7.22;;;3.70;;
75667;SDS011;64266;48.798;44.756;2022-10-16T10:20:01;9.07;;;4.53;;
75667;SDS011;64266;48.798;44.756;2022-10-16T10:22:46;9.27;;;4.15;;
75667;SDS011;64266;48.798;44.756;2022-10-16T10:27:57;9.93;;;3.90;;
75667;SDS011;64266;48.798;44.756;2022-10-16T10:31:34;7.93;;;3.58;;
75667;SDS011;64266;48.798;44.756;2022-10-16T10:33:47;6.57;;;3.13;;
75667;SDS011;64266;48.798;44.756;2022-10-16T10:36:37;6.07;;;2.60;;
75667;SDS011;64266;48.798;44.756;2022-10-16T10:39:22;7.72;;;3.63;;
75667;SDS011;64266;48.798;44.756;2022-10-16T10:50:07;5.82;;;2.90;;
75667;SDS011;64266;48.798;44.756;2022-10-16T10:52:59;7.75;;;3.33;;
75667;SDS011;64266;48.798;44.756;2022-10-16T11:01:17;8.55;;;3.78;;
75667;SDS011;64266;48.798;44.756;2022-10-16T11:06:26;6.63;;;3.17;;
75667;SDS011;64266;48.798;44.756;2022-10-16T11:11:43;8.38;;;4.32;;
75667;SDS011;64266;48.798;44.756;2022-10-16T11:21:56;9.02;;;3.88;;
75667;SDS011;64266;48.798;44.756;2022-10-16T11:24:51;9.43;;;3.38;;
75667;SDS011;64266;48.798;44.756;2022-10-16T11:27:20;11.32;;;3.53;;
75667;SDS011;64266;48.798;44.756;2022-10-16T11:29:58;12.30;;;5.40;;
75667;SDS011;64266;48.798;44.756;2022-10-16T11:38:18;6.55;;;2.83;;
75667;SDS011;64266;48.798;44.756;2022-10-16T11:40:53;6.68;;;2.55;;
75667;SDS011;64266;48.798;44.756;2022-10-16T11:46:04;8.60;;;4.03;;
75667;SDS011;64266;48.798;44.756;2022-10-16T11:48:43;16.63;;;4.60;;
75667;SDS011;64266;48.798;44.756;2022-10-16T11:54:20;10.20;;;4.40;;
75667;SDS011;64266;48.798;44.756;2022-10-16T11:57:39;9.52;;;3.60;;
75667;SDS011;64266;48.798;44.756;2022-10-16T12:00:31;7.18;;;2.90;;
75667;SDS011;64266;48.798;44.756;2022-10-16T12:03:16;10.25;;;2.75;;
75667;SDS011;64266;48.798;44.756;2022-10-16T12:08:35;12.45;;;4.93;;
75667;SDS011;64266;48.798;44.756;2022-10-16T12:11:35;9.63;;;3.92;;
75667;SDS011;64266;48.798;44.756;2022-10-16T12:14:07;8.73;;;3.78;;
75667;SDS011;64266;48.798;44.756;2022-10-16T12:16:55;16.05;;;4.43;;
75667;SDS011;64266;48.798;44.756;2022-10-16T12:19:26;12.48;;;3.53;;
75667;SDS011;64266;48.798;44.756;2022-10-16T12:21:55;9.80;;;3.67;;
75667;SDS011;64266;48.798;44.756;2022-10-16T12:27:03;6.28;;;2.83;;
75667;SDS011;64266;48.798;44.756;2022-10-16T12:29:39;6.55;;;3.00;;
75667;SDS011;64266;48.798;44.756;2022-10-16T12:35:16;5.22;;;2.42;;
75667;SDS011;64266;48.798;44.756;2022-10-16T12:37:45;8.90;;;3.20;;
75667;SDS011;64266;48.798;44.756;2022-10-16T12:42:50;7.45;;;3.03;;
75667;SDS011;64266;48.798;44.756;2022-10-16T12:45:32;11.55;;;3.65;;
75667;SDS011;64266;48.798;44.756;2022-10-16T12:48:00;6.43;;;2.78;;
75667;SDS011;64266;48.798;44.756;2022-10-16T12:50:34;5.88;;;2.63;;
75667;SDS011;64266;48.798;44.756;2022-10-16T12:53:03;8.50;;;2.72;;
75667;SDS011;64266;48.798;44.756;2022-10-16T12:55:46;5.30;;;2.50;;
75667;SDS011;64266;48.798;44.756;2022-10-16T13:06:55;6.32;;;2.30;;
75667;SDS011;64266;48.798;44.756;2022-10-16T13:26:22;6.50;;;2.95;;
75667;SDS011;64266;48.798;44.756;2022-10-16T13:28:53;7.60;;;2.47;;
75667;SDS011;64266;48.798;44.756;2022-10-16T13:31:19;6.63;;;2.67;;
75667;SDS011;64266;48.798;44.756;2022-10-16T13:33:50;4.15;;;2.50;;
75667;SDS011;64266;48.798;44.756;2022-10-16T13:36:21;6.80;;;2.58;;
75667;SDS011;64266;48.798;44.756;2022-10-16T13:39:00;10.93;;;3.72;;
75667;SDS011;64266;48.798;44.756;2022-10-16T13:44:34;8.00;;;3.95;;
75667;SDS011;64266;48.798;44.756;2022-10-16T13:47:04;10.80;;;4.65;;
75667;SDS011;64266;48.798;44.756;2022-10-16T13:49:30;7.72;;;4.15;;
75667;SDS011;64266;48.798;44.756;2022-10-16T13:51:57;12.75;;;5.15;;
75667;SDS011;64266;48.798;44.756;2022-10-16T13:54:26;12.05;;;4.20;;
75667;SDS011;64266;48.798;44.756;2022-10-16T13:56:54;7.90;;;3.95;;
75667;SDS011;64266;48.798;44.756;2022-10-16T13:59:24;10.43;;;4.50;;
75667;SDS011;64266;48.798;44.756;2022-10-16T14:01:53;8.10;;;4.18;;
75667;SDS011;64266;48.798;44.756;2022-10-16T14:04:22;7.63;;;3.92;;
75667;SDS011;64266;48.798;44.756;2022-10-16T14:07:04;10.43;;;3.53;;
75667;SDS011;64266;48.798;44.756;2022-10-16T14:09:47;9.27;;;4.15;;
75667;SDS011;64266;48.798;44.756;2022-10-16T14:12:15;8.00;;;3.67;;
75667;SDS011;64266;48.798;44.756;2022-10-16T14:14:45;9.35;;;4.35;;
75667;SDS011;64266;48.798;44.756;2022-10-16T14:17:14;11.80;;;4.50;;
75667;SDS011;64266;48.798;44.756;2022-10-16T14:19:45;7.72;;;4.10;;
75667;SDS011;64266;48.798;44.756;2022-10-16T14:22:21;7.05;;;4.47;;
75667;SDS011;64266;48.798;44.756;2022-10-16T14:24:53;9.45;;;4.68;;
75667;SDS011;64266;48.798;44.756;2022-10-16T14:27:35;9.18;;;4.82;;
75667;SDS011;64266;48.798;44.756;2022-10-16T14:35:31;9.32;;;4.38;;
75667;SDS011;64266;48.798;44.756;2022-10-16T14:38:00;9.20;;;3.30;;
75667;SDS011;64266;48.798;44.756;2022-10-16T14:40:29;10.68;;;3.80;;
75667;SDS011;64266;48.798;44.756;2022-10-16T14:42:59;9.40;;;3.72;;
75667;SDS011;64266;48.798;44.756;2022-10-16T14:45:31;11.95;;;4.40;;
75667;SDS011;64266;48.798;44.756;2022-10-16T14:48:01;12.63;;;4.55;;
75667;SDS011;64266;48.798;44.756;2022-10-16T14:50:30;12.60;;;4.43;;
75667;SDS011;64266;48.798;44.756;2022-10-16T14:52:56;9.75;;;3.88;;
75667;SDS011;64266;48.798;44.756;2022-10-16T14:55:24;12.18;;;4.10;;
75667;SDS011;64266;48.798;44.756;2022-10-16T14:57:51;9.45;;;3.97;;
75667;SDS011;64266;48.798;44.756;2022-10-16T15:00:19;12.05;;;4.40;;
75667;SDS011;64266;48.798;44.756;2022-10-16T15:07:44;11.68;;;4.40;;
75667;SDS011;64266;48.798;44.756;2022-10-16T15:10:12;10.93;;;4.55;;
75667;SDS011;64266;48.798;44.756;2022-10-16T15:12:39;11.52;;;4.63;;
75667;SDS011;64266;48.798;44.756;2022-10-16T15:15:24;13.55;;;4.72;;
75667;SDS011;64266;48.798;44.756;2022-10-16T15:17:56;10.05;;;4.55;;
75667;SDS011;64266;48.798;44.756;2022-10-16T15:20:23;8.65;;;4.43;;
75667;SDS011;64266;48.798;44.756;2022-10-16T15:22:50;8.88;;;4.30;;
75667;SDS011;64266;48.798;44.756;2022-10-16T15:28:07;10.52;;;4.22;;
75667;SDS011;64266;48.798;44.756;2022-10-16T15:30:34;8.05;;;4.10;;
75667;SDS011;64266;48.798;44.756;2022-10-16T15:33:02;12.20;;;4.70;;
75667;SDS011;64266;48.798;44.756;2022-10-16T15:35:28;13.88;;;4.97;;
75667;SDS011;64266;48.798;44.756;2022-10-16T15:37:54;12.18;;;4.38;;
75667;SDS011;64266;48.798;44.756;2022-10-16T15:40:20;8.43;;;4.25;;
75667;SDS011;64266;48.798;44.756;2022-10-16T15:42:48;13.75;;;5.05;;
75667;SDS011;64266;48.798;44.756;2022-10-16T15:45:14;20.55;;;8.10;;
75667;SDS011;64266;48.798;44.756;2022-10-16T15:47:41;20.40;;;8.55;;
75667;SDS011;64266;48.798;44.756;2022-10-16T15:50:09;17.30;;;7.30;;
75667;SDS011;64266;48.798;44.756;2022-10-16T15:52:37;14.43;;;7.35;;
75667;SDS011;64266;48.798;44.756;2022-10-16T15:55:05;14.75;;;5.97;;
75667;SDS011;64266;48.798;44.756;2022-10-16T15:57:33;14.50;;;6.63;;
75667;SDS011;64266;48.798;44.756;2022-10-16T16:00:00;17.70;;;6.78;;
75667;SDS011;64266;48.798;44.756;2022-10-16T16:02:27;15.60;;;6.53;;
75667;SDS011;64266;48.798;44.756;2022-10-16T16:04:52;13.90;;;6.10;;
75667;SDS011;64266;48.798;44.756;2022-10-16T16:07:19;14.45;;;5.75;;
75667;SDS011;64266;48.798;44.756;2022-10-16T16:09:44;15.82;;;6.18;;
75667;SDS011;64266;48.798;44.756;2022-10-16T16:12:10;10.55;;;5.28;;
75667;SDS011;64266;48.798;44.756;2022-10-16T16:14:36;15.40;;;5.47;;
75667;SDS011;64266;48.798;44.756;2022-10-16T16:17:03;15.55;;;5.55;;
75667;SDS011;64266;48.798;44.756;2022-10-16T16:19:28;14.30;;;5.55;;
75667;SDS011;64266;48.798;44.756;2022-10-16T16:21:54;12.25;;;5.95;;
75667;SDS011;64266;48.798;44.756;2022-10-16T16:24:21;12.50;;;5.55;;
75667;SDS011;64266;48.798;44.756;2022-10-16T16:26:46;14.98;;;5.95;;
75667;SDS011;64266;48.798;44.756;2022-10-16T16:29:13;15.18;;;5.75;;
75667;SDS011;64266;48.798;44.756;2022-10-16T16:31:40;16.55;;;6.03;;
75667;SDS011;64266;48.798;44.756;2022-10-16T16:34:06;16.92;;;6.70;;
75667;SDS011;64266;48.798;44.756;2022-10-16T16:36:33;16.83;;;6.15;;
75667;SDS011;64266;48.798;44.756;2022-10-16T16:38:59;18.08;;;6.25;;
75667;SDS011;64266;48.798;44.756;2022-10-16T16:41:26;18.17;;;6.30;;
75667;SDS011;64266;48.798;44.756;2022-10-16T16:43:53;16.58;;;6.45;;
75667;SDS011;64266;48.798;44.756;2022-10-16T16:46:20;19.63;;;7.97;;
75667;SDS011;64266;48.798;44.756;2022-10-16T16:48:46;20.65;;;7.93;;
75667;SDS011;64266;48.798;44.756;2022-10-16T16:51:15;24.63;;;7.55;;
75667;SDS011;64266;48.798;44.756;2022-10-16T16:53:49;18.30;;;7.10;;
75667;SDS011;64266;48.798;44.756;2022-10-16T16:56:16;18.48;;;7.38;;
75667;SDS011;64266;48.798;44.756;2022-10-16T16:58:44;16.27;;;7.50;;
75667;SDS011;64266;48.798;44.756;2022-10-16T17:01:11;20.13;;;7.72;;
75667;SDS011;64266;48.798;44.756;2022-10-16T17:03:37;15.52;;;7.28;;